createdAt,value
2023-02-17T18:01:45.884Z,11.33
2023-02-17T18:03:38.161Z,11.37
2023-02-17T18:05:29.374Z,11.40
2023-02-17T18:07:20.919Z,11.43
2023-02-17T18:09:30.337Z,11.43
2023-02-17T18:11:24.384Z,11.41
2023-02-17T18:13:16.643Z,11.41
2023-02-17T18:15:08.659Z,11.44
2023-02-17T18:17:00.380Z,11.47
2023-02-17T18:18:51.936Z,11.48
2023-02-17T18:20:43.342Z,11.48
2023-02-17T18:22:34.692Z,11.53
2023-02-17T18:24:25.916Z,11.56
2023-02-17T18:26:18.581Z,11.60
2023-02-17T18:28:10.323Z,11.66
2023-02-17T18:30:01.510Z,11.67
2023-02-17T18:31:53.206Z,11.70
2023-02-17T18:33:44.924Z,11.71
2023-02-17T18:35:37.447Z,11.75
2023-02-17T18:37:29.243Z,11.75
2023-02-17T18:39:20.467Z,11.76
2023-02-17T18:41:24.204Z,11.78
2023-02-17T18:43:16.910Z,11.81
2023-02-17T18:45:09.484Z,11.79
2023-02-17T18:47:00.967Z,11.78
2023-02-17T18:48:52.955Z,11.79
2023-02-17T18:50:44.656Z,11.79
2023-02-17T18:52:38.131Z,11.82
2023-02-17T18:54:29.534Z,11.86
2023-02-17T18:56:23.858Z,11.90
2023-02-17T18:58:15.580Z,11.90
2023-02-17T19:00:10.846Z,11.87
2023-02-17T19:02:05.101Z,11.88
2023-02-17T19:03:57.251Z,11.91
2023-02-17T19:05:49.447Z,11.94
2023-02-17T19:07:41.820Z,11.93
2023-02-17T19:09:34.840Z,11.95
2023-02-17T19:11:26.325Z,11.97
2023-02-17T19:13:18.050Z,11.96
2023-02-17T19:15:09.821Z,11.96
2023-02-17T19:17:00.956Z,11.95
2023-02-17T19:18:53.049Z,11.93
2023-02-17T19:20:44.675Z,11.91
2023-02-17T19:22:36.824Z,11.92
2023-02-17T19:24:28.148Z,11.91
2023-02-17T19:26:20.316Z,11.88
2023-02-17T19:28:12.988Z,11.83
2023-02-17T19:30:04.881Z,11.80
2023-02-17T19:32:00.353Z,11.79
2023-02-17T19:33:51.949Z,11.78
2023-02-17T19:35:44.510Z,11.76
2023-02-17T19:37:35.822Z,11.74
2023-02-17T19:39:27.132Z,11.73
2023-02-17T19:41:19.052Z,11.70
2023-02-17T19:43:10.630Z,11.64
2023-02-17T19:45:01.675Z,11.58
2023-02-17T19:46:53.893Z,11.53
2023-02-17T19:48:45.602Z,11.48
2023-02-17T19:50:38.299Z,11.44
2023-02-17T19:52:29.678Z,11.39
2023-02-17T19:54:21.598Z,11.34
2023-02-17T19:56:16.289Z,11.29
2023-02-17T19:58:07.726Z,11.25
2023-02-17T19:59:59.113Z,11.21
2023-02-17T20:01:50.803Z,11.15
2023-02-17T20:03:43.010Z,11.12
2023-02-17T20:05:39.300Z,11.09
2023-02-17T20:07:31.774Z,11.05
2023-02-17T20:09:23.524Z,11.00
2023-02-17T20:11:15.168Z,10.94
2023-02-17T20:13:06.596Z,10.86
2023-02-17T20:14:58.292Z,10.74
2023-02-17T20:16:50.759Z,10.62
2023-02-17T20:18:46.130Z,10.50
2023-02-17T20:20:38.324Z,10.41
2023-02-17T20:22:30.118Z,10.35
2023-02-17T20:24:21.204Z,10.30
2023-02-17T20:26:16.111Z,10.29
2023-02-17T20:28:07.393Z,10.25
2023-02-17T20:30:00.784Z,10.21
2023-02-17T20:31:52.338Z,10.17
2023-02-17T20:33:44.489Z,10.15
2023-02-17T20:35:36.796Z,10.13
2023-02-17T20:37:28.141Z,10.10
2023-02-17T20:39:20.009Z,10.07
2023-02-17T20:41:14.174Z,10.08
2023-02-17T20:43:06.732Z,10.05
2023-02-17T20:44:58.467Z,10.04
2023-02-17T20:46:50.350Z,10.05
2023-02-17T20:48:42.054Z,10.03
2023-02-17T20:50:34.091Z,10.05
2023-02-17T20:52:25.492Z,10.06
2023-02-17T20:54:16.917Z,10.09
2023-02-17T20:56:16.838Z,10.10
2023-02-17T20:58:10.471Z,10.12
2023-02-17T21:00:02.431Z,10.11
2023-02-17T21:01:53.966Z,10.14
2023-02-17T21:03:45.882Z,10.15
2023-02-17T21:05:37.759Z,10.15
2023-02-17T21:07:29.529Z,10.12
2023-02-17T21:09:20.899Z,10.12
2023-02-17T21:11:11.937Z,10.13
2023-02-17T21:13:03.128Z,10.11
2023-02-17T21:14:54.935Z,10.09
2023-02-17T21:16:46.503Z,10.07
2023-02-17T21:18:38.117Z,10.05
2023-02-17T21:20:29.332Z,10.01
2023-02-17T21:22:20.524Z,10.00
2023-02-17T21:24:12.118Z,9.98
2023-02-17T21:26:06.568Z,9.95
2023-02-17T21:27:58.147Z,9.91
2023-02-17T21:29:49.916Z,9.92
2023-02-17T21:31:41.770Z,9.93
2023-02-17T21:33:33.596Z,9.91
2023-02-17T21:35:25.019Z,9.91
2023-02-17T21:37:16.837Z,9.91
2023-02-17T21:39:08.328Z,9.93
2023-02-17T21:41:05.817Z,9.93
2023-02-17T21:43:15.137Z,9.96
2023-02-17T21:45:06.485Z,9.97
2023-02-17T21:46:58.254Z,9.99
2023-02-17T21:48:51.608Z,10.00
2023-02-17T21:50:44.865Z,10.01
2023-02-17T21:52:36.034Z,10.03
2023-02-17T21:54:27.637Z,10.03
2023-02-17T21:56:20.561Z,10.06
2023-02-17T21:58:11.853Z,10.07
2023-02-17T22:00:03.653Z,10.07
2023-02-17T22:01:55.358Z,10.06
2023-02-17T22:03:46.783Z,10.05
2023-02-17T22:05:37.997Z,10.04
2023-02-17T22:07:29.515Z,10.01
2023-02-17T22:09:20.774Z,9.96
2023-02-17T22:11:27.428Z,9.89
2023-02-17T22:13:19.107Z,9.78
2023-02-17T22:15:11.605Z,9.66
2023-02-17T22:17:03.123Z,9.51
2023-02-17T22:18:54.483Z,9.38
2023-02-17T22:20:46.223Z,9.24
2023-02-17T22:22:37.458Z,9.13
2023-02-17T22:24:29.305Z,9.03
2023-02-17T22:26:23.817Z,8.94
2023-02-17T22:28:15.086Z,8.86
2023-02-17T22:30:06.840Z,8.79
2023-02-17T22:31:58.598Z,8.74
2023-02-17T22:33:50.588Z,8.70
2023-02-17T22:35:42.041Z,8.66
2023-02-17T22:37:33.308Z,8.62
2023-02-17T22:39:24.469Z,8.57
2023-02-17T22:41:20.963Z,8.54
2023-02-17T22:43:12.522Z,8.50
2023-02-17T22:45:06.384Z,8.49
2023-02-17T22:46:57.751Z,8.49
2023-02-17T22:48:50.534Z,8.48
2023-02-17T22:50:41.980Z,8.50
2023-02-17T22:52:35.167Z,8.52
2023-02-17T22:54:26.743Z,8.50
2023-02-17T22:56:18.103Z,8.48
2023-02-17T22:58:09.519Z,8.46
2023-02-17T23:00:01.063Z,8.44
2023-02-17T23:01:52.228Z,8.43
2023-02-17T23:03:44.604Z,8.41
2023-02-17T23:05:36.075Z,8.42
2023-02-17T23:07:27.623Z,8.40
2023-02-17T23:09:19.953Z,8.38
2023-02-17T23:11:13.973Z,8.36
2023-02-17T23:13:05.416Z,8.34
2023-02-17T23:14:56.844Z,8.35
2023-02-17T23:16:48.856Z,8.32
2023-02-17T23:18:40.715Z,8.26
2023-02-17T23:20:32.032Z,8.24
2023-02-17T23:22:23.241Z,8.24
2023-02-17T23:24:16.621Z,8.23
2023-02-17T23:26:08.097Z,8.20
2023-02-17T23:28:00.025Z,8.17
2023-02-17T23:29:51.504Z,8.15
2023-02-17T23:31:43.534Z,8.13
2023-02-17T23:33:35.291Z,8.10
2023-02-17T23:35:26.982Z,8.07
2023-02-17T23:37:18.406Z,8.04
2023-02-17T23:39:10.289Z,8.02
2023-02-17T23:41:01.639Z,8.00
2023-02-17T23:42:53.197Z,7.95
2023-02-17T23:44:44.531Z,7.91
2023-02-17T23:46:36.422Z,7.91
2023-02-17T23:48:28.065Z,7.93
2023-02-17T23:50:19.135Z,7.95
2023-02-17T23:52:11.170Z,7.95
2023-02-17T23:54:02.638Z,7.96
2023-02-17T23:56:30.339Z,7.96
2023-02-17T23:58:21.825Z,7.94
